x

Fairweather Ground 105nm West Of Juno, Ak (46083) Wave Buoy

3:50am - Mon 16th Jan 2017 All times are AKST. -9 hours from GMT.

  • Sig Wave height 16.7ft
  • Swell Direction
  • Peak Period 11s
  • Average Period 8s
  • Wind
    25mph, 29mph gusts
  • Sea Temp 45°f
  • Air Temp 45°f
  • Sea Pressure 974.8mb
  • Fairweather Ground 105nm West  Of Juno, Ak
  • Fairweather Ground 105nm West  Of Juno, Ak

More Historic Weather Station data

Upgrade to MSW Pro to gain access to the past 30 days of data for over 8000 Wavebouys and Weather Stations around the globe.

Join Pro

Comparision Forecast

View Surf forecast
   
Mon 01/16 3:50am 16.5ft 11s 8s 25 29 mph 974.8mb 45f 45f
2:50am 16.5ft 11s 8s 27 31 mph 974.8mb 45f 45f
1:50am 16.5ft 11s 8s 31 36 mph 974.9mb 45f 44f
12:50am 17ft 11s 8s 36 43 mph 975.4mb 45f 44f
Sun 01/15 11:50pm 15ft 11s 8s 31 40 mph 976.7mb 45f 44f
10:50pm 16.5ft 11s 8s 31 40 mph 977.8mb 45f 45f
9:50pm 17.5ft 11s 8s 27 36 mph 979.1mb 44f 45f
8:50pm 19ft 11s 8s 29 36 mph 979.7mb 44f 46f
7:50pm 19.5ft 11s 8s 31 38 mph 980mb 44f 46f
6:50pm 18ft 10s 8s 36 47 mph 980.6mb 44f 41f
5:50pm 15.5ft 9s 7s 40 47 mph 981.5mb 44f 40f
4:50pm 15.5ft 8s 7s 43 54 mph 982.3mb 45f 39f
3:50pm 15ft 7s 7s 40 49 mph 984.6mb 45f 39f
2:50pm 13.5ft 11s 7s 40 51 mph 987.9mb 45f 38f
1:50pm 13.5ft 13s 7s 38 45 mph 992.2mb 45f 37f
12:50pm 12ft 13s 7s 34 40 mph 995.6mb 45f 40f
11:50am 13ft 11s 8s 29 38 mph 999.1mb 45f 42f
10:50am 12ft 11s 8s 25 29 mph 1001.3mb 45f 40f
9:50am 12.5ft 10s 8s 22 27 mph 1003mb 45f 40f
8:50am 12ft 11s 8s 18 22 mph 1004.5mb 45f 40f
7:50am 13ft 13s 8s 13 18 mph 1004.9mb 45f 40f
6:50am 10ft 11s 8s 16 22 mph 1005.4mb 45f 39f
5:50am 11ft 11s 8s 13 18 mph 1005.4mb 45f 40f
4:50am 11ft 14s 8s 16 20 mph 1005.9mb 45f 40f
3:50am 12ft 13s 8s 18 22 mph 1005mb 45f 40f
2:50am 12ft 11s 8s 20 25 mph 1004.4mb 45f 40f
1:50am 13ft 11s 8s 22 27 mph 1003.4mb 45f 41f
12:50am 12ft 14s 8s 25 31 mph 1002.1mb 45f 42f
Sat 01/14 11:50pm 12.5ft 11s 8s 16 20 mph 1001mb 45f 44f
10:50pm 12ft 13s 8s 20 25 mph 999.8mb 45f 44f
9:50pm 13.5ft 13s 8s 18 22 mph 999.6mb 45f 43f
8:50pm 13ft 11s 9s 18 25 mph 999.2mb 45f 43f
7:50pm 13ft 11s 9s 20 25 mph 998.9mb 45f 43f
6:50pm 14ft 13s 9s 16 20 mph 999.6mb 45f 42f
5:50pm 15.5ft 13s 9s 20 25 mph 1000mb 45f 43f
4:50pm 14.5ft 13s 9s 20 25 mph 1000mb 45f 44f
3:50pm 15ft 13s 9s 18 22 mph 1000.2mb 45f 42f
2:50pm 16ft 13s 9s 18 22 mph 1000mb 45f 44f
1:50pm 18ft 13s 9s 13 20 mph 1000.5mb 45f 44f
12:50pm 17ft 12s 9s 16 20 mph 1000.6mb 45f 44f
11:50am 17ft 13s 9s 22 29 mph 1000.5mb 45f 43f
10:50am 16.5ft 12s 9s 13 18 mph 1000.5mb 45f 43f
9:50am 18.5ft 12s 9s 18 25 mph 999.5mb 45f 42f
8:50am 16.5ft 11s 8s 18 27 mph 998.5mb 45f 43f
7:50am 17.5ft 12s 8s 18 22 mph 997.1mb 45f 43f
6:50am 17.5ft 12s 9s 25 31 mph 995.2mb 45f 43f
5:50am 18ft 12s 9s 25 34 mph 993.9mb 45f 44f
4:50am 17.5ft 12s 9s 29 36 mph 992.8mb 45f 44f
3:50am 15.5ft 11s 8s 29 36 mph 991.6mb 45f 44f
2:50am 16ft 11s 8s 25 31 mph 991mb 45f 44f
1:50am 15.5ft 11s 8s 25 29 mph 990.3mb 45f 45f
12:50am 15ft 11s 8s 25 29 mph 989.6mb 45f 45f
Fri 01/13 11:50pm 15.5ft 12s 8s 22 29 mph 988.9mb 45f 45f
10:50pm 17ft 11s 8s 25 31 mph 988.7mb 45f 44f
9:50pm 17ft 11s 8s 29 36 mph 988.8mb 45f 45f
8:50pm 17.5ft 11s 9s 31 38 mph 989.4mb 45f 45f
7:50pm 15.5ft 11s 8s 29 34 mph 989.9mb 45f 45f
6:50pm 14.5ft 11s 8s 25 29 mph 990.8mb 45f 45f
5:50pm 15ft 11s 8s 25 31 mph 991mb 45f 45f
4:50pm 15ft 11s 8s 25 31 mph 991.1mb 45f 45f
3:50pm 16.5ft 10s 8s 25 31 mph 991mb 45f 45f
2:50pm 16.5ft 10s 8s 22 31 mph 991.1mb 45f 45f
1:50pm 17.5ft 10s 8s 27 34 mph 991.4mb 45f 44f
12:50pm 16.5ft 10s 7s 36 43 mph 992mb 45f 39f
11:50am 17ft 10s 8s 31 38 mph 993.1mb 45f 44f
10:50am 17ft 9s 8s 38 49 mph 993.7mb 45f 39f
9:50am 16ft 8s 7s 38 45 mph 994.5mb 45f 42f
8:50am 15.5ft 9s 7s 38 47 mph 995.7mb 45f 41f
7:50am 13ft 8s 7s 38 47 mph 996.6mb 45f 41f
6:50am 11ft 7s 6s 36 43 mph 998mb 45f 40f
5:50am 8ft 6s 5s 36 43 mph 999.5mb 45f 40f
4:50am 7ft 6s 5s 31 38 mph 1001.3mb 45f 40f
3:50am 7ft 5s 5s 27 34 mph 1003mb 45f 40f
2:50am 6ft 7s 5s 22 29 mph 1004.4mb 45f 40f
1:50am 5.5ft 8s 6s 20 25 mph 1005.6mb 45f 41f
12:50am 6ft 7s 6s 16 18 mph 1006.7mb 45f 41f
Thu 01/12 11:50pm 6ft 8s 6s 20 27 mph 1007.2mb 45f 40f
10:50pm 6ft 8s 6s 16 27 mph 1007.8mb 45f 39f
9:50pm 6ft 8s 6s 18 22 mph 1007.8mb 45f 41f
8:50pm 5.5ft 7s 6s 13 18 mph 1007.7mb 45f 42f
7:50pm 5ft 7s 6s 9 13 mph 1008mb 45f 40f
6:50pm 5ft 7s 6s 4 7 mph 1008.1mb 45f 40f
5:50pm 4.5ft 7s 6s 16 20 mph 1008.2mb 45f 40f
4:50pm 4.5ft 7s 6s 11 16 mph 1007.9mb 45f 41f
3:50pm 4.5ft 7s 6s 9 11 mph 1007.9mb 45f 40f
2:50pm 4ft 7s 5s 13 18 mph 1007.7mb 45f 39f